sensor_id;sensor_type;location;lat;lon;timestamp;temperature;humidity
24412;DHT22;12544;46.760;15.942;2023-07-22T00:00:32;16.80;99.90
24412;DHT22;12544;46.760;15.942;2023-07-22T00:02:57;16.80;99.90
24412;DHT22;12544;46.760;15.942;2023-07-22T00:05:23;16.80;99.90
24412;DHT22;12544;46.760;15.942;2023-07-22T00:07:51;16.80;99.90
24412;DHT22;12544;46.760;15.942;2023-07-22T00:10:17;16.70;99.90
24412;DHT22;12544;46.760;15.942;2023-07-22T00:12:43;16.70;99.90
24412;DHT22;12544;46.760;15.942;2023-07-22T00:15:09;16.70;99.90
24412;DHT22;12544;46.760;15.942;2023-07-22T00:17:40;16.60;99.90
24412;DHT22;12544;46.760;15.942;2023-07-22T00:20:07;16.60;99.90
24412;DHT22;12544;46.760;15.942;2023-07-22T00:22:37;16.60;99.90
24412;DHT22;12544;46.760;15.942;2023-07-22T00:25:03;16.50;99.90
24412;DHT22;12544;46.760;15.942;2023-07-22T00:27:29;16.50;99.90
24412;DHT22;12544;46.760;15.942;2023-07-22T00:29:55;16.50;99.90
24412;DHT22;12544;46.760;15.942;2023-07-22T00:32:20;16.50;99.90
24412;DHT22;12544;46.760;15.942;2023-07-22T00:34:46;16.50;99.90
24412;DHT22;12544;46.760;15.942;2023-07-22T00:37:12;16.50;99.90
24412;DHT22;12544;46.760;15.942;2023-07-22T00:39:37;16.50;99.90
24412;DHT22;12544;46.760;15.942;2023-07-22T00:42:03;16.50;99.90
24412;DHT22;12544;46.760;15.942;2023-07-22T00:44:29;16.50;99.90
24412;DHT22;12544;46.760;15.942;2023-07-22T00:46:56;16.50;99.90
24412;DHT22;12544;46.760;15.942;2023-07-22T00:49:23;16.50;99.90
24412;DHT22;12544;46.760;15.942;2023-07-22T00:51:51;16.40;99.90
24412;DHT22;12544;46.760;15.942;2023-07-22T00:54:16;16.40;99.90
24412;DHT22;12544;46.760;15.942;2023-07-22T00:56:43;16.40;99.90
24412;DHT22;12544;46.760;15.942;2023-07-22T00:59:09;16.40;99.90
24412;DHT22;12544;46.760;15.942;2023-07-22T01:01:35;16.40;99.90
24412;DHT22;12544;46.760;15.942;2023-07-22T01:04:01;16.40;99.90
24412;DHT22;12544;46.760;15.942;2023-07-22T01:06:27;16.40;99.90
24412;DHT22;12544;46.760;15.942;2023-07-22T01:08:57;16.50;99.90
24412;DHT22;12544;46.760;15.942;2023-07-22T01:11:23;16.50;99.90
24412;DHT22;12544;46.760;15.942;2023-07-22T01:13:49;16.50;99.90
24412;DHT22;12544;46.760;15.942;2023-07-22T01:16:15;16.50;99.90
24412;DHT22;12544;46.760;15.942;2023-07-22T01:18:42;16.60;99.90
24412;DHT22;12544;46.760;15.942;2023-07-22T01:21:08;16.50;99.90
24412;DHT22;12544;46.760;15.942;2023-07-22T01:23:35;16.50;99.90
24412;DHT22;12544;46.760;15.942;2023-07-22T01:26:02;16.50;99.90
24412;DHT22;12544;46.760;15.942;2023-07-22T01:28:28;16.50;99.90
24412;DHT22;12544;46.760;15.942;2023-07-22T01:30:54;16.50;99.90
24412;DHT22;12544;46.760;15.942;2023-07-22T01:33:20;16.50;99.90
24412;DHT22;12544;46.760;15.942;2023-07-22T01:35:46;16.50;99.90
24412;DHT22;12544;46.760;15.942;2023-07-22T01:38:11;16.50;99.90
24412;DHT22;12544;46.760;15.942;2023-07-22T01:40:37;16.50;99.90
24412;DHT22;12544;46.760;15.942;2023-07-22T01:43:03;16.50;99.90
24412;DHT22;12544;46.760;15.942;2023-07-22T01:45:29;16.40;99.90
24412;DHT22;12544;46.760;15.942;2023-07-22T01:47:55;16.40;99.90
24412;DHT22;12544;46.760;15.942;2023-07-22T01:50:20;16.40;99.90
24412;DHT22;12544;46.760;15.942;2023-07-22T01:52:46;16.40;99.90
24412;DHT22;12544;46.760;15.942;2023-07-22T01:55:12;16.50;99.90
24412;DHT22;12544;46.760;15.942;2023-07-22T01:57:38;16.40;99.90
24412;DHT22;12544;46.760;15.942;2023-07-22T02:00:05;16.40;99.90
24412;DHT22;12544;46.760;15.942;2023-07-22T02:02:32;16.40;99.90
24412;DHT22;12544;46.760;15.942;2023-07-22T02:04:57;16.40;99.90
24412;DHT22;12544;46.760;15.942;2023-07-22T02:07:23;16.40;99.90
24412;DHT22;12544;46.760;15.942;2023-07-22T02:09:51;16.50;99.90
24412;DHT22;12544;46.760;15.942;2023-07-22T02:12:17;16.60;99.90
24412;DHT22;12544;46.760;15.942;2023-07-22T02:14:43;16.60;99.90
24412;DHT22;12544;46.760;15.942;2023-07-22T02:17:09;16.60;99.90
24412;DHT22;12544;46.760;15.942;2023-07-22T02:19:34;16.70;99.90
24412;DHT22;12544;46.760;15.942;2023-07-22T02:22:00;16.70;99.90
24412;DHT22;12544;46.760;15.942;2023-07-22T02:24:26;16.60;99.90
24412;DHT22;12544;46.760;15.942;2023-07-22T02:26:51;16.60;99.90
24412;DHT22;12544;46.760;15.942;2023-07-22T02:29:17;16.50;99.90
24412;DHT22;12544;46.760;15.942;2023-07-22T02:31:45;16.50;99.90
24412;DHT22;12544;46.760;15.942;2023-07-22T02:34:12;16.50;99.90
24412;DHT22;12544;46.760;15.942;2023-07-22T02:36:37;16.50;99.90
24412;DHT22;12544;46.760;15.942;2023-07-22T02:39:03;16.60;99.90
24412;DHT22;12544;46.760;15.942;2023-07-22T02:41:29;16.50;99.90
24412;DHT22;12544;46.760;15.942;2023-07-22T02:43:54;16.50;99.90
24412;DHT22;12544;46.760;15.942;2023-07-22T02:46:20;16.50;99.90
24412;DHT22;12544;46.760;15.942;2023-07-22T02:48:46;16.50;99.90
24412;DHT22;12544;46.760;15.942;2023-07-22T02:51:11;16.60;99.90
24412;DHT22;12544;46.760;15.942;2023-07-22T02:53:37;16.60;99.90
24412;DHT22;12544;46.760;15.942;2023-07-22T02:56:04;16.60;99.90
24412;DHT22;12544;46.760;15.942;2023-07-22T02:58:30;16.50;99.90
24412;DHT22;12544;46.760;15.942;2023-07-22T03:00:56;16.50;99.90
24412;DHT22;12544;46.760;15.942;2023-07-22T03:03:23;16.50;99.90
24412;DHT22;12544;46.760;15.942;2023-07-22T03:05:48;16.50;99.90
24412;DHT22;12544;46.760;15.942;2023-07-22T03:08:15;16.60;99.90
24412;DHT22;12544;46.760;15.942;2023-07-22T03:10:40;16.60;99.90
24412;DHT22;12544;46.760;15.942;2023-07-22T03:13:06;16.50;99.90
24412;DHT22;12544;46.760;15.942;2023-07-22T03:15:32;16.50;99.90
24412;DHT22;12544;46.760;15.942;2023-07-22T03:17:58;16.50;99.90
24412;DHT22;12544;46.760;15.942;2023-07-22T03:20:25;16.50;99.90
24412;DHT22;12544;46.760;15.942;2023-07-22T03:22:51;16.50;99.90
24412;DHT22;12544;46.760;15.942;2023-07-22T03:25:17;16.50;99.90
24412;DHT22;12544;46.760;15.942;2023-07-22T03:27:43;16.50;99.90
24412;DHT22;12544;46.760;15.942;2023-07-22T03:30:14;16.50;99.90
24412;DHT22;12544;46.760;15.942;2023-07-22T03:32:42;16.60;99.90
24412;DHT22;12544;46.760;15.942;2023-07-22T03:35:09;16.50;99.90
24412;DHT22;12544;46.760;15.942;2023-07-22T03:37:36;16.50;99.90
24412;DHT22;12544;46.760;15.942;2023-07-22T03:40:02;16.40;99.90
24412;DHT22;12544;46.760;15.942;2023-07-22T03:42:28;16.40;99.90
24412;DHT22;12544;46.760;15.942;2023-07-22T03:44:54;16.40;99.90
24412;DHT22;12544;46.760;15.942;2023-07-22T03:47:20;16.40;99.90
24412;DHT22;12544;46.760;15.942;2023-07-22T03:49:45;16.30;99.90
24412;DHT22;12544;46.760;15.942;2023-07-22T03:52:11;16.40;99.90
24412;DHT22;12544;46.760;15.942;2023-07-22T03:54:39;16.40;99.90
24412;DHT22;12544;46.760;15.942;2023-07-22T03:57:05;16.30;99.90
24412;DHT22;12544;46.760;15.942;2023-07-22T03:59:31;16.40;99.90
24412;DHT22;12544;46.760;15.942;2023-07-22T04:01:57;16.40;99.90
24412;DHT22;12544;46.760;15.942;2023-07-22T04:04:22;16.40;99.90
24412;DHT22;12544;46.760;15.942;2023-07-22T04:06:48;16.40;99.90
24412;DHT22;12544;46.760;15.942;2023-07-22T04:09:14;16.50;99.90
24412;DHT22;12544;46.760;15.942;2023-07-22T04:11:39;16.50;99.90
24412;DHT22;12544;46.760;15.942;2023-07-22T04:14:05;16.50;99.90
24412;DHT22;12544;46.760;15.942;2023-07-22T04:16:30;16.50;99.90
24412;DHT22;12544;46.760;15.942;2023-07-22T04:18:56;16.50;99.90
24412;DHT22;12544;46.760;15.942;2023-07-22T04:21:22;16.50;99.90
24412;DHT22;12544;46.760;15.942;2023-07-22T04:23:48;16.50;99.90
24412;DHT22;12544;46.760;15.942;2023-07-22T04:26:14;16.50;99.90
24412;DHT22;12544;46.760;15.942;2023-07-22T04:28:40;16.50;99.90
24412;DHT22;12544;46.760;15.942;2023-07-22T04:31:05;16.50;99.90
24412;DHT22;12544;46.760;15.942;2023-07-22T04:33:31;16.60;99.90
24412;DHT22;12544;46.760;15.942;2023-07-22T04:35:58;16.60;99.90
24412;DHT22;12544;46.760;15.942;2023-07-22T04:38:25;16.70;99.90
24412;DHT22;12544;46.760;15.942;2023-07-22T04:40:50;16.80;99.90
24412;DHT22;12544;46.760;15.942;2023-07-22T04:43:16;16.80;99.90
24412;DHT22;12544;46.760;15.942;2023-07-22T04:45:44;16.80;99.90
24412;DHT22;12544;46.760;15.942;2023-07-22T04:48:10;16.80;99.90
24412;DHT22;12544;46.760;15.942;2023-07-22T04:50:36;16.90;99.90
24412;DHT22;12544;46.760;15.942;2023-07-22T04:53:05;16.90;99.90
24412;DHT22;12544;46.760;15.942;2023-07-22T04:55:32;17.00;99.90
24412;DHT22;12544;46.760;15.942;2023-07-22T04:57:58;17.00;99.90
24412;DHT22;12544;46.760;15.942;2023-07-22T05:00:23;17.00;99.90
24412;DHT22;12544;46.760;15.942;2023-07-22T05:02:49;17.00;99.90
24412;DHT22;12544;46.760;15.942;2023-07-22T05:05:17;17.10;99.90
24412;DHT22;12544;46.760;15.942;2023-07-22T05:07:43;17.00;99.90
24412;DHT22;12544;46.760;15.942;2023-07-22T05:10:09;17.00;99.90
24412;DHT22;12544;46.760;15.942;2023-07-22T05:12:38;16.90;99.90
24412;DHT22;12544;46.760;15.942;2023-07-22T05:15:05;16.90;99.90
24412;DHT22;12544;46.760;15.942;2023-07-22T05:17:30;17.00;99.90
24412;DHT22;12544;46.760;15.942;2023-07-22T05:19:57;17.00;99.90
24412;DHT22;12544;46.760;15.942;2023-07-22T05:22:23;17.10;99.90
24412;DHT22;12544;46.760;15.942;2023-07-22T05:24:48;17.10;99.90
24412;DHT22;12544;46.760;15.942;2023-07-22T05:27:14;17.20;99.90
24412;DHT22;12544;46.760;15.942;2023-07-22T05:29:40;17.20;99.90
24412;DHT22;12544;46.760;15.942;2023-07-22T05:32:06;17.20;99.90
24412;DHT22;12544;46.760;15.942;2023-07-22T05:34:32;17.30;99.90
24412;DHT22;12544;46.760;15.942;2023-07-22T05:36:57;17.30;99.90
24412;DHT22;12544;46.760;15.942;2023-07-22T05:39:23;17.30;99.90
24412;DHT22;12544;46.760;15.942;2023-07-22T05:41:49;17.30;99.90
24412;DHT22;12544;46.760;15.942;2023-07-22T05:44:14;17.30;99.90
24412;DHT22;12544;46.760;15.942;2023-07-22T05:46:40;17.40;99.90
24412;DHT22;12544;46.760;15.942;2023-07-22T05:49:06;17.30;99.90
24412;DHT22;12544;46.760;15.942;2023-07-22T05:51:31;17.40;99.90
24412;DHT22;12544;46.760;15.942;2023-07-22T05:53:57;17.50;99.90
24412;DHT22;12544;46.760;15.942;2023-07-22T05:56:23;17.60;99.90
24412;DHT22;12544;46.760;15.942;2023-07-22T05:58:48;17.60;99.90
24412;DHT22;12544;46.760;15.942;2023-07-22T06:01:14;17.70;99.90
24412;DHT22;12544;46.760;15.942;2023-07-22T06:03:40;17.70;99.90
24412;DHT22;12544;46.760;15.942;2023-07-22T06:06:06;17.80;99.90
24412;DHT22;12544;46.760;15.942;2023-07-22T06:08:31;17.80;99.90
24412;DHT22;12544;46.760;15.942;2023-07-22T06:10:57;17.80;99.90
24412;DHT22;12544;46.760;15.942;2023-07-22T06:13:23;17.90;99.90
24412;DHT22;12544;46.760;15.942;2023-07-22T06:15:48;17.90;99.90
24412;DHT22;12544;46.760;15.942;2023-07-22T06:18:14;17.90;99.90
24412;DHT22;12544;46.760;15.942;2023-07-22T06:20:39;18.00;99.90
24412;DHT22;12544;46.760;15.942;2023-07-22T06:23:05;18.10;99.90
24412;DHT22;12544;46.760;15.942;2023-07-22T06:25:31;18.10;99.90
24412;DHT22;12544;46.760;15.942;2023-07-22T06:27:57;18.20;99.90
24412;DHT22;12544;46.760;15.942;2023-07-22T06:30:22;18.30;99.90
24412;DHT22;12544;46.760;15.942;2023-07-22T06:32:48;18.40;99.90
24412;DHT22;12544;46.760;15.942;2023-07-22T06:35:13;18.40;99.90
24412;DHT22;12544;46.760;15.942;2023-07-22T06:37:39;18.50;99.90
24412;DHT22;12544;46.760;15.942;2023-07-22T06:40:06;18.50;99.90
24412;DHT22;12544;46.760;15.942;2023-07-22T06:42:32;18.60;99.90
24412;DHT22;12544;46.760;15.942;2023-07-22T06:44:57;18.60;99.90
24412;DHT22;12544;46.760;15.942;2023-07-22T06:47:23;18.70;99.90
24412;DHT22;12544;46.760;15.942;2023-07-22T06:49:49;18.70;99.90
24412;DHT22;12544;46.760;15.942;2023-07-22T06:52:16;18.80;99.90
24412;DHT22;12544;46.760;15.942;2023-07-22T06:54:41;18.90;99.90
24412;DHT22;12544;46.760;15.942;2023-07-22T06:57:07;18.90;99.90
24412;DHT22;12544;46.760;15.942;2023-07-22T06:59:33;19.00;99.90
24412;DHT22;12544;46.760;15.942;2023-07-22T07:01:58;19.10;99.90
24412;DHT22;12544;46.760;15.942;2023-07-22T07:04:24;19.10;99.90
24412;DHT22;12544;46.760;15.942;2023-07-22T07:06:50;19.20;99.90
24412;DHT22;12544;46.760;15.942;2023-07-22T07:09:16;19.30;99.90
24412;DHT22;12544;46.760;15.942;2023-07-22T07:11:42;19.40;99.90
24412;DHT22;12544;46.760;15.942;2023-07-22T07:14:07;19.40;99.90
24412;DHT22;12544;46.760;15.942;2023-07-22T07:16:33;19.50;99.90
24412;DHT22;12544;46.760;15.942;2023-07-22T07:19:00;19.50;99.90
24412;DHT22;12544;46.760;15.942;2023-07-22T07:21:26;19.60;99.90
24412;DHT22;12544;46.760;15.942;2023-07-22T07:23:53;19.60;99.90
24412;DHT22;12544;46.760;15.942;2023-07-22T07:26:20;19.60;99.90
24412;DHT22;12544;46.760;15.942;2023-07-22T07:28:47;19.70;99.90
24412;DHT22;12544;46.760;15.942;2023-07-22T07:31:13;19.80;99.90
24412;DHT22;12544;46.760;15.942;2023-07-22T07:33:39;19.90;99.90
24412;DHT22;12544;46.760;15.942;2023-07-22T07:36:05;20.00;99.90
24412;DHT22;12544;46.760;15.942;2023-07-22T07:38:31;20.20;99.90
24412;DHT22;12544;46.760;15.942;2023-07-22T07:40:59;20.30;99.90
24412;DHT22;12544;46.760;15.942;2023-07-22T07:43:25;20.40;99.90
24412;DHT22;12544;46.760;15.942;2023-07-22T07:45:51;20.50;99.90
24412;DHT22;12544;46.760;15.942;2023-07-22T07:48:36;20.60;99.90
24412;DHT22;12544;46.760;15.942;2023-07-22T07:51:02;20.60;99.90
24412;DHT22;12544;46.760;15.942;2023-07-22T07:53:28;20.70;99.90
24412;DHT22;12544;46.760;15.942;2023-07-22T07:55:54;20.70;99.90
24412;DHT22;12544;46.760;15.942;2023-07-22T07:58:19;20.80;99.90
24412;DHT22;12544;46.760;15.942;2023-07-22T08:00:45;20.80;99.90
24412;DHT22;12544;46.760;15.942;2023-07-22T08:03:10;20.90;99.90
24412;DHT22;12544;46.760;15.942;2023-07-22T08:05:36;20.90;99.90
24412;DHT22;12544;46.760;15.942;2023-07-22T08:08:01;20.90;99.90
24412;DHT22;12544;46.760;15.942;2023-07-22T08:10:27;20.90;99.90
24412;DHT22;12544;46.760;15.942;2023-07-22T08:12:53;20.90;99.90
24412;DHT22;12544;46.760;15.942;2023-07-22T08:15:18;21.00;99.90
24412;DHT22;12544;46.760;15.942;2023-07-22T08:17:44;21.00;99.90
24412;DHT22;12544;46.760;15.942;2023-07-22T08:20:10;21.00;99.90
24412;DHT22;12544;46.760;15.942;2023-07-22T08:22:36;21.10;99.90
24412;DHT22;12544;46.760;15.942;2023-07-22T08:25:02;21.10;99.90
24412;DHT22;12544;46.760;15.942;2023-07-22T08:27:28;21.10;99.90
24412;DHT22;12544;46.760;15.942;2023-07-22T08:29:54;21.20;99.90
24412;DHT22;12544;46.760;15.942;2023-07-22T08:32:19;21.30;99.90
24412;DHT22;12544;46.760;15.942;2023-07-22T08:34:45;21.40;99.90
24412;DHT22;12544;46.760;15.942;2023-07-22T08:37:10;21.40;99.90
24412;DHT22;12544;46.760;15.942;2023-07-22T08:39:37;21.50;99.90
24412;DHT22;12544;46.760;15.942;2023-07-22T08:42:04;21.60;99.90
24412;DHT22;12544;46.760;15.942;2023-07-22T08:44:32;21.80;99.90
24412;DHT22;12544;46.760;15.942;2023-07-22T08:47:01;21.90;99.90
24412;DHT22;12544;46.760;15.942;2023-07-22T08:49:30;22.00;99.90
24412;DHT22;12544;46.760;15.942;2023-07-22T08:51:56;22.10;99.90
24412;DHT22;12544;46.760;15.942;2023-07-22T08:54:25;22.20;99.90
24412;DHT22;12544;46.760;15.942;2023-07-22T08:56:51;22.30;99.90
24412;DHT22;12544;46.760;15.942;2023-07-22T08:59:19;22.40;99.90
24412;DHT22;12544;46.760;15.942;2023-07-22T09:01:48;22.40;99.90
24412;DHT22;12544;46.760;15.942;2023-07-22T09:04:13;22.40;99.90
24412;DHT22;12544;46.760;15.942;2023-07-22T09:06:39;22.50;99.90
24412;DHT22;12544;46.760;15.942;2023-07-22T09:09:07;22.50;99.90
24412;DHT22;12544;46.760;15.942;2023-07-22T09:11:34;22.60;99.90
24412;DHT22;12544;46.760;15.942;2023-07-22T09:14:02;22.60;99.90
24412;DHT22;12544;46.760;15.942;2023-07-22T09:16:29;22.60;99.90
24412;DHT22;12544;46.760;15.942;2023-07-22T09:18:57;22.70;99.90
24412;DHT22;12544;46.760;15.942;2023-07-22T09:21:23;22.80;99.90
24412;DHT22;12544;46.760;15.942;2023-07-22T09:23:48;22.90;99.90
24412;DHT22;12544;46.760;15.942;2023-07-22T09:26:16;22.90;99.90
24412;DHT22;12544;46.760;15.942;2023-07-22T09:28:48;23.10;99.90
24412;DHT22;12544;46.760;15.942;2023-07-22T09:31:14;23.20;99.90
24412;DHT22;12544;46.760;15.942;2023-07-22T09:33:40;23.30;99.90
24412;DHT22;12544;46.760;15.942;2023-07-22T09:36:05;23.30;99.90
24412;DHT22;12544;46.760;15.942;2023-07-22T09:38:31;23.30;99.90
24412;DHT22;12544;46.760;15.942;2023-07-22T09:40:57;23.30;99.90
24412;DHT22;12544;46.760;15.942;2023-07-22T09:43:23;23.30;99.90
24412;DHT22;12544;46.760;15.942;2023-07-22T09:45:49;23.30;99.90
24412;DHT22;12544;46.760;15.942;2023-07-22T09:48:15;23.30;99.90
24412;DHT22;12544;46.760;15.942;2023-07-22T09:50:41;23.40;99.90
24412;DHT22;12544;46.760;15.942;2023-07-22T09:53:07;23.40;99.90
24412;DHT22;12544;46.760;15.942;2023-07-22T09:55:33;23.40;99.90
24412;DHT22;12544;46.760;15.942;2023-07-22T09:58:01;23.40;99.90
24412;DHT22;12544;46.760;15.942;2023-07-22T10:00:33;23.40;99.90
24412;DHT22;12544;46.760;15.942;2023-07-22T10:03:00;23.40;99.90
24412;DHT22;12544;46.760;15.942;2023-07-22T10:05:27;23.40;99.90
24412;DHT22;12544;46.760;15.942;2023-07-22T10:07:58;23.40;99.90
24412;DHT22;12544;46.760;15.942;2023-07-22T10:10:31;23.40;99.90
24412;DHT22;12544;46.760;15.942;2023-07-22T10:12:58;23.50;99.90
24412;DHT22;12544;46.760;15.942;2023-07-22T10:15:29;23.50;99.90
24412;DHT22;12544;46.760;15.942;2023-07-22T10:17:56;23.50;99.90
24412;DHT22;12544;46.760;15.942;2023-07-22T10:20:23;23.60;99.90
24412;DHT22;12544;46.760;15.942;2023-07-22T10:22:49;23.70;99.90
24412;DHT22;12544;46.760;15.942;2023-07-22T10:28:38;23.80;99.90
24412;DHT22;12544;46.760;15.942;2023-07-22T10:31:06;24.10;99.90
24412;DHT22;12544;46.760;15.942;2023-07-22T10:33:32;24.30;99.90
24412;DHT22;12544;46.760;15.942;2023-07-22T10:36:06;24.40;99.90
24412;DHT22;12544;46.760;15.942;2023-07-22T10:38:33;24.60;99.90
24412;DHT22;12544;46.760;15.942;2023-07-22T10:40:59;24.60;99.90
24412;DHT22;12544;46.760;15.942;2023-07-22T10:43:26;24.70;99.90
24412;DHT22;12544;46.760;15.942;2023-07-22T10:45:55;24.70;99.90
24412;DHT22;12544;46.760;15.942;2023-07-22T10:48:25;24.90;99.90
24412;DHT22;12544;46.760;15.942;2023-07-22T10:50:54;25.00;99.90
24412;DHT22;12544;46.760;15.942;2023-07-22T10:56:20;25.00;99.90
24412;DHT22;12544;46.760;15.942;2023-07-22T11:01:24;25.20;99.90
24412;DHT22;12544;46.760;15.942;2023-07-22T11:06:34;25.30;99.90
24412;DHT22;12544;46.760;15.942;2023-07-22T11:09:00;25.30;99.90
24412;DHT22;12544;46.760;15.942;2023-07-22T11:11:53;25.30;99.90
24412;DHT22;12544;46.760;15.942;2023-07-22T11:14:21;25.50;99.90
24412;DHT22;12544;46.760;15.942;2023-07-22T11:16:47;25.50;99.90
24412;DHT22;12544;46.760;15.942;2023-07-22T11:19:18;25.50;99.90
24412;DHT22;12544;46.760;15.942;2023-07-22T11:21:45;25.50;99.90
24412;DHT22;12544;46.760;15.942;2023-07-22T11:24:11;25.40;99.90
24412;DHT22;12544;46.760;15.942;2023-07-22T11:26:54;25.30;99.90
24412;DHT22;12544;46.760;15.942;2023-07-22T11:29:20;25.40;99.90
24412;DHT22;12544;46.760;15.942;2023-07-22T11:31:47;25.40;99.90
24412;DHT22;12544;46.760;15.942;2023-07-22T11:34:18;25.30;99.90
24412;DHT22;12544;46.760;15.942;2023-07-22T11:36:44;25.50;99.90
24412;DHT22;12544;46.760;15.942;2023-07-22T11:39:12;25.50;99.90
24412;DHT22;12544;46.760;15.942;2023-07-22T11:41:39;25.50;99.90
24412;DHT22;12544;46.760;15.942;2023-07-22T11:44:07;25.50;99.90
24412;DHT22;12544;46.760;15.942;2023-07-22T11:47:05;25.70;99.90
24412;DHT22;12544;46.760;15.942;2023-07-22T11:49:41;25.90;99.90
24412;DHT22;12544;46.760;15.942;2023-07-22T11:52:09;25.90;99.90
24412;DHT22;12544;46.760;15.942;2023-07-22T11:54:40;26.00;99.90
24412;DHT22;12544;46.760;15.942;2023-07-22T11:57:24;26.10;99.90
24412;DHT22;12544;46.760;15.942;2023-07-22T11:59:55;26.00;99.90
24412;DHT22;12544;46.760;15.942;2023-07-22T12:02:28;26.00;99.90
24412;DHT22;12544;46.760;15.942;2023-07-22T12:05:01;25.90;99.90
24412;DHT22;12544;46.760;15.942;2023-07-22T12:07:29;26.00;99.90
24412;DHT22;12544;46.760;15.942;2023-07-22T12:09:57;26.00;99.90
24412;DHT22;12544;46.760;15.942;2023-07-22T12:12:44;26.10;99.90
24412;DHT22;12544;46.760;15.942;2023-07-22T12:18:00;26.10;99.90
24412;DHT22;12544;46.760;15.942;2023-07-22T12:20:35;26.20;99.90
24412;DHT22;12544;46.760;15.942;2023-07-22T12:23:01;26.00;99.90
24412;DHT22;12544;46.760;15.942;2023-07-22T12:25:27;25.80;99.90
24412;DHT22;12544;46.760;15.942;2023-07-22T12:27:53;25.70;99.90
24412;DHT22;12544;46.760;15.942;2023-07-22T12:30:20;25.50;99.90
24412;DHT22;12544;46.760;15.942;2023-07-22T12:32:46;25.40;99.90
24412;DHT22;12544;46.760;15.942;2023-07-22T12:35:12;25.50;99.90
24412;DHT22;12544;46.760;15.942;2023-07-22T12:37:39;25.50;99.90
24412;DHT22;12544;46.760;15.942;2023-07-22T12:40:05;25.50;99.90
24412;DHT22;12544;46.760;15.942;2023-07-22T12:42:34;25.40;99.90
24412;DHT22;12544;46.760;15.942;2023-07-22T12:44:59;25.40;99.90
24412;DHT22;12544;46.760;15.942;2023-07-22T12:47:25;25.40;99.90
24412;DHT22;12544;46.760;15.942;2023-07-22T12:49:50;25.30;99.90
24412;DHT22;12544;46.760;15.942;2023-07-22T12:52:16;25.30;99.90
24412;DHT22;12544;46.760;15.942;2023-07-22T12:54:42;25.20;99.90
24412;DHT22;12544;46.760;15.942;2023-07-22T12:57:07;25.10;99.90
24412;DHT22;12544;46.760;15.942;2023-07-22T12:59:33;25.00;99.90
24412;DHT22;12544;46.760;15.942;2023-07-22T13:01:58;24.90;99.90
24412;DHT22;12544;46.760;15.942;2023-07-22T13:04:24;24.80;99.90
24412;DHT22;12544;46.760;15.942;2023-07-22T13:06:50;24.70;99.90
24412;DHT22;12544;46.760;15.942;2023-07-22T13:09:17;24.60;99.90
24412;DHT22;12544;46.760;15.942;2023-07-22T13:11:43;24.50;99.90
24412;DHT22;12544;46.760;15.942;2023-07-22T13:14:08;24.40;99.90
24412;DHT22;12544;46.760;15.942;2023-07-22T13:16:34;24.40;99.90
24412;DHT22;12544;46.760;15.942;2023-07-22T13:19:00;24.40;99.90
24412;DHT22;12544;46.760;15.942;2023-07-22T13:21:28;24.30;99.90
24412;DHT22;12544;46.760;15.942;2023-07-22T13:23:54;24.30;99.90
24412;DHT22;12544;46.760;15.942;2023-07-22T13:26:19;24.20;99.90
24412;DHT22;12544;46.760;15.942;2023-07-22T13:28:45;24.20;99.90
24412;DHT22;12544;46.760;15.942;2023-07-22T13:31:11;24.20;99.90
24412;DHT22;12544;46.760;15.942;2023-07-22T13:33:37;24.20;99.90
24412;DHT22;12544;46.760;15.942;2023-07-22T13:36:02;24.20;99.90
24412;DHT22;12544;46.760;15.942;2023-07-22T13:38:28;24.10;99.90
24412;DHT22;12544;46.760;15.942;2023-07-22T13:40:53;24.10;99.90
24412;DHT22;12544;46.760;15.942;2023-07-22T13:43:19;24.10;99.90
24412;DHT22;12544;46.760;15.942;2023-07-22T13:45:45;24.10;99.90
24412;DHT22;12544;46.760;15.942;2023-07-22T13:48:10;24.00;99.90
24412;DHT22;12544;46.760;15.942;2023-07-22T13:50:37;24.00;99.90
24412;DHT22;12544;46.760;15.942;2023-07-22T13:53:02;24.00;99.90
24412;DHT22;12544;46.760;15.942;2023-07-22T13:55:28;23.90;99.90
24412;DHT22;12544;46.760;15.942;2023-07-22T13:57:54;23.80;99.90
24412;DHT22;12544;46.760;15.942;2023-07-22T14:00:19;23.70;99.90
24412;DHT22;12544;46.760;15.942;2023-07-22T14:02:45;23.70;99.90
24412;DHT22;12544;46.760;15.942;2023-07-22T14:05:10;24.00;99.90
24412;DHT22;12544;46.760;15.942;2023-07-22T14:07:36;24.40;99.90
24412;DHT22;12544;46.760;15.942;2023-07-22T14:10:03;24.80;99.90
24412;DHT22;12544;46.760;15.942;2023-07-22T14:12:29;24.80;99.90
24412;DHT22;12544;46.760;15.942;2023-07-22T14:14:55;24.70;99.90
24412;DHT22;12544;46.760;15.942;2023-07-22T14:17:21;24.70;99.90
24412;DHT22;12544;46.760;15.942;2023-07-22T14:19:46;24.60;99.90
24412;DHT22;12544;46.760;15.942;2023-07-22T14:22:12;24.40;99.90
24412;DHT22;12544;46.760;15.942;2023-07-22T14:24:37;24.20;99.90
24412;DHT22;12544;46.760;15.942;2023-07-22T14:27:03;24.00;99.90
24412;DHT22;12544;46.760;15.942;2023-07-22T14:29:29;23.90;99.90
24412;DHT22;12544;46.760;15.942;2023-07-22T14:31:56;23.70;99.90
24412;DHT22;12544;46.760;15.942;2023-07-22T14:34:22;23.60;99.90
24412;DHT22;12544;46.760;15.942;2023-07-22T14:36:48;23.50;99.90
24412;DHT22;12544;46.760;15.942;2023-07-22T14:39:13;23.50;99.90
24412;DHT22;12544;46.760;15.942;2023-07-22T14:41:41;23.40;99.90
24412;DHT22;12544;46.760;15.942;2023-07-22T14:44:09;23.40;99.90
24412;DHT22;12544;46.760;15.942;2023-07-22T14:46:34;23.50;99.90
24412;DHT22;12544;46.760;15.942;2023-07-22T14:49:01;23.80;99.90
24412;DHT22;12544;46.760;15.942;2023-07-22T14:51:26;23.80;99.90
24412;DHT22;12544;46.760;15.942;2023-07-22T14:53:52;23.70;99.90
24412;DHT22;12544;46.760;15.942;2023-07-22T14:56:18;23.60;99.90
24412;DHT22;12544;46.760;15.942;2023-07-22T14:58:44;23.40;99.90
24412;DHT22;12544;46.760;15.942;2023-07-22T15:01:09;23.30;99.90
24412;DHT22;12544;46.760;15.942;2023-07-22T15:03:37;23.30;99.90
24412;DHT22;12544;46.760;15.942;2023-07-22T15:06:02;23.20;99.90
24412;DHT22;12544;46.760;15.942;2023-07-22T15:08:28;23.20;99.90
24412;DHT22;12544;46.760;15.942;2023-07-22T15:10:54;23.20;99.90
24412;DHT22;12544;46.760;15.942;2023-07-22T15:13:19;23.10;99.90
24412;DHT22;12544;46.760;15.942;2023-07-22T15:15:45;23.00;99.90
24412;DHT22;12544;46.760;15.942;2023-07-22T15:18:11;22.80;99.90
24412;DHT22;12544;46.760;15.942;2023-07-22T15:20:36;22.70;99.90
24412;DHT22;12544;46.760;15.942;2023-07-22T15:23:02;22.50;99.90
24412;DHT22;12544;46.760;15.942;2023-07-22T15:25:27;22.40;99.90